Time;durP1;ratioP1;P1;durP2;ratioP2;P2;SDS_P1;SDS_P2;PMS_P1;PMS_P2;Temp;Humidity;BMP_temperature;BMP_pressure;BME280_temperature;BME280_humidity;BME280_pressure;Samples;Min_cycle;Max_cycle;Signal;HPM_P1;HPM_P2
2023/03/14 00:01:21;;;;;;;;;;;8.70;99.90;;;;;;5064975;28;20003;-69
2023/03/14 00:03:48;;;;;;;;;;;8.70;99.90;;;;;;5064874;28;19992;-69
2023/03/14 00:06:15;;;;;;;;;;;8.70;99.90;;;;;;5064271;28;19952;-69
2023/03/14 00:08:42;;;;;;;;;;;8.70;99.90;;;;;;5064614;28;20124;-69
2023/03/14 00:11:11;;;;;;;;;;;8.70;99.90;;;;;;5064482;28;20173;-69
2023/03/14 00:13:38;;;;;;;;;;;8.60;99.90;;;;;;5064343;28;19927;-69
2023/03/14 00:16:05;;;;;;;;;;;8.70;99.90;;;;;;5063843;28;20191;-69
2023/03/14 00:18:32;;;;;;;;;;;8.70;99.90;;;;;;5064108;28;19987;-69
2023/03/14 00:20:59;;;;;;;;;;;8.70;99.90;;;;;;5064326;28;19927;-69
2023/03/14 00:23:25;;;;;;;;;;;8.70;99.90;;;;;;5064589;28;19927;-68
2023/03/14 00:25:52;;;;;;;;;;;8.80;99.90;;;;;;5063996;28;19956;-68
2023/03/14 00:28:20;;;;;;;;;;;8.70;99.90;;;;;;5063869;28;19920;-68
2023/03/14 00:30:48;;;;;;;;;;;8.70;99.90;;;;;;5063574;28;20402;-69
2023/03/14 00:33:15;;;;;;;;;;;8.70;99.90;;;;;;5064324;28;19959;-69
2023/03/14 00:35:42;;;;;;;;;;;8.70;99.90;;;;;;5064212;28;19988;-69
2023/03/14 00:38:08;;;;;;;;;;;8.80;99.90;;;;;;5063520;28;19952;-69
2023/03/14 00:40:35;;;;;;;;;;;8.80;99.90;;;;;;5063889;28;19921;-69
2023/03/14 00:43:01;;;;;;;;;;;8.80;99.90;;;;;;5064145;28;19983;-68
2023/03/14 00:45:29;;;;;;;;;;;8.80;99.90;;;;;;5063637;28;20260;-68
2023/03/14 00:47:56;;;;;;;;;;;8.80;99.90;;;;;;5063281;28;19952;-67
2023/03/14 00:50:22;;;;;;;;;;;8.80;99.90;;;;;;5063815;28;19967;-69
2023/03/14 00:52:49;;;;;;;;;;;8.80;99.90;;;;;;5064045;28;20164;-69
2023/03/14 00:55:16;;;;;;;;;;;8.70;99.90;;;;;;5063885;28;19928;-68
2023/03/14 00:57:42;;;;;;;;;;;8.80;99.90;;;;;;5063291;28;19987;-69
2023/03/14 01:00:11;;;;;;;;;;;8.70;99.90;;;;;;5064440;28;19984;-69
2023/03/14 01:02:39;;;;;;;;;;;8.70;99.90;;;;;;5063525;28;19920;-68
2023/03/14 01:05:07;;;;;;;;;;;8.70;99.90;;;;;;5063508;28;20008;-69
2023/03/14 01:07:33;;;;;;;;;;;8.70;99.90;;;;;;5063117;28;19992;-68
2023/03/14 01:10:00;;;;;;;;;;;8.70;99.90;;;;;;5063782;28;19920;-68
2023/03/14 01:12:28;;;;;;;;;;;8.70;99.90;;;;;;5063209;28;20331;-69
2023/03/14 01:14:54;;;;;;;;;;;8.70;99.90;;;;;;5063297;28;19927;-69
2023/03/14 01:17:22;;;;;;;;;;;8.60;99.90;;;;;;5063115;28;19921;-68
2023/03/14 01:19:50;;;;;;;;;;;8.70;99.90;;;;;;5063577;28;19921;-69
2023/03/14 01:22:16;;;;;;;;;;;8.70;99.90;;;;;;5063560;28;19927;-69
2023/03/14 01:24:43;;;;;;;;;;;8.70;99.90;;;;;;5063219;28;20224;-69
2023/03/14 01:27:10;;;;;;;;;;;8.70;99.90;;;;;;5063135;28;19983;-69
2023/03/14 01:29:36;;;;;;;;;;;8.70;99.90;;;;;;5063590;28;19971;-69
2023/03/14 01:32:03;;;;;;;;;;;8.70;99.90;;;;;;5063539;28;19955;-69
2023/03/14 01:34:29;;;;;;;;;;;8.70;99.90;;;;;;5063637;28;19984;-68
2023/03/14 01:36:57;;;;;;;;;;;8.70;99.90;;;;;;5062322;28;19979;-69
2023/03/14 01:39:24;;;;;;;;;;;8.80;99.90;;;;;;5062961;28;19921;-69
2023/03/14 01:41:51;;;;;;;;;;;8.80;99.90;;;;;;5063144;28;19927;-68
2023/03/14 01:44:17;;;;;;;;;;;8.80;99.90;;;;;;5063163;28;19948;-68
2023/03/14 01:46:45;;;;;;;;;;;8.80;99.90;;;;;;5062360;28;19948;-69
2023/03/14 01:49:14;;;;;;;;;;;8.80;99.90;;;;;;5063277;28;19920;-69
2023/03/14 01:51:43;;;;;;;;;;;8.90;99.90;;;;;;5063078;28;19971;-69
2023/03/14 01:54:14;;;;;;;;;;;8.90;99.90;;;;;;5063439;28;19984;-68
2023/03/14 01:56:42;;;;;;;;;;;8.90;99.90;;;;;;5063053;28;19983;-69
2023/03/14 01:59:09;;;;;;;;;;;8.90;99.90;;;;;;5063093;28;19921;-69
2023/03/14 02:01:36;;;;;;;;;;;8.90;99.90;;;;;;5063298;28;19959;-69
2023/03/14 02:04:05;;;;;;;;;;;8.90;99.90;;;;;;5063494;28;19921;-68
2023/03/14 02:06:35;;;;;;;;;;;8.90;99.90;;;;;;5066331;28;19957;-69
2023/03/14 02:09:02;;;;;;;;;;;8.80;99.90;;;;;;5066986;28;19927;-68
2023/03/14 02:11:30;;;;;;;;;;;8.90;99.90;;;;;;5066687;28;19963;-69
2023/03/14 02:13:58;;;;;;;;;;;8.90;99.90;;;;;;5066756;28;19920;-69
2023/03/14 02:16:25;;;;;;;;;;;8.90;99.90;;;;;;5065639;28;20123;-69
2023/03/14 02:18:52;;;;;;;;;;;8.90;99.90;;;;;;5066294;28;19992;-70
2023/03/14 02:21:22;;;;;;;;;;;8.90;99.90;;;;;;5066646;28;19952;-69
2023/03/14 02:23:54;;;;;;;;;;;8.90;99.90;;;;;;5066686;28;19921;-69
2023/03/14 02:26:23;;;;;;;;;;;8.90;99.90;;;;;;5065694;28;19921;-69
2023/03/14 02:28:53;;;;;;;;;;;8.90;99.90;;;;;;5066377;28;19984;-69
2023/03/14 02:31:20;;;;;;;;;;;8.90;99.90;;;;;;5066344;28;19927;-69
2023/03/14 02:33:47;;;;;;;;;;;8.90;99.90;;;;;;5066481;28;19984;-69
2023/03/14 02:36:15;;;;;;;;;;;8.90;99.90;;;;;;5065813;28;19927;-69
2023/03/14 02:38:46;;;;;;;;;;;8.90;99.90;;;;;;5066275;28;20235;-69
2023/03/14 02:41:13;;;;;;;;;;;8.90;99.90;;;;;;5066527;28;19928;-69
2023/03/14 02:43:39;;;;;;;;;;;8.90;99.90;;;;;;5066531;28;20007;-69
2023/03/14 02:46:11;;;;;;;;;;;8.90;99.90;;;;;;5065927;28;20174;-70
2023/03/14 02:48:39;;;;;;;;;;;8.90;99.90;;;;;;5066382;28;19987;-70
2023/03/14 02:51:07;;;;;;;;;;;8.80;99.90;;;;;;5065975;28;19929;-69
2023/03/14 02:53:36;;;;;;;;;;;8.80;99.90;;;;;;5066547;28;19980;-69
2023/03/14 02:56:03;;;;;;;;;;;8.80;99.90;;;;;;5066239;28;19921;-69
2023/03/14 02:58:31;;;;;;;;;;;8.80;99.90;;;;;;5065835;28;19921;-69
2023/03/14 03:00:57;;;;;;;;;;;8.80;99.90;;;;;;5066027;28;19989;-69
2023/03/14 03:03:25;;;;;;;;;;;8.80;99.90;;;;;;5065989;28;19991;-69
2023/03/14 03:05:52;;;;;;;;;;;8.80;99.90;;;;;;5065456;28;19921;-69
2023/03/14 03:08:19;;;;;;;;;;;8.80;99.90;;;;;;5065600;28;19920;-69
2023/03/14 03:10:46;;;;;;;;;;;8.70;99.90;;;;;;5065552;28;20212;-68
2023/03/14 03:13:13;;;;;;;;;;;8.70;99.90;;;;;;5065473;28;20338;-69
2023/03/14 03:15:40;;;;;;;;;;;8.70;99.90;;;;;;5064101;28;19921;-69
2023/03/14 03:18:06;;;;;;;;;;;8.70;99.90;;;;;;5065229;28;19978;-68
2023/03/14 03:20:34;;;;;;;;;;;8.70;99.90;;;;;;5065161;28;20282;-69
2023/03/14 03:23:01;;;;;;;;;;;8.60;99.90;;;;;;5065600;28;19927;-68
2023/03/14 03:25:28;;;;;;;;;;;8.60;99.90;;;;;;5065245;28;19984;-69
2023/03/14 03:27:54;;;;;;;;;;;8.60;99.90;;;;;;5064617;28;20143;-69
2023/03/14 03:30:21;;;;;;;;;;;8.70;99.90;;;;;;5065157;28;20227;-69
2023/03/14 03:32:48;;;;;;;;;;;8.60;99.90;;;;;;5065195;28;19927;-69
2023/03/14 03:35:14;;;;;;;;;;;8.60;99.90;;;;;;5065012;28;19921;-69
2023/03/14 03:37:42;;;;;;;;;;;8.60;99.90;;;;;;5064779;28;19956;-69
2023/03/14 03:40:09;;;;;;;;;;;8.70;99.90;;;;;;5065360;28;19927;-69
2023/03/14 03:42:36;;;;;;;;;;;8.70;99.90;;;;;;5065281;28;19920;-68
2023/03/14 03:45:04;;;;;;;;;;;8.60;99.90;;;;;;5065191;28;19927;-68
2023/03/14 03:47:31;;;;;;;;;;;8.60;99.90;;;;;;5064553;28;19952;-69
2023/03/14 03:49:57;;;;;;;;;;;8.60;99.90;;;;;;5052353;28;20204;-68
2023/03/14 03:52:24;;;;;;;;;;;8.60;99.90;;;;;;5064987;28;19985;-69
2023/03/14 03:54:52;;;;;;;;;;;8.60;99.90;;;;;;5064946;28;19983;-69
2023/03/14 03:57:19;;;;;;;;;;;8.60;99.90;;;;;;5063997;28;19927;-68
2023/03/14 03:59:45;;;;;;;;;;;8.60;99.90;;;;;;5064822;28;19956;-69
2023/03/14 04:02:12;;;;;;;;;;;8.60;99.90;;;;;;5064659;28;19988;-69
2023/03/14 04:04:39;;;;;;;;;;;8.60;99.90;;;;;;5064478;28;19956;-69
2023/03/14 04:07:05;;;;;;;;;;;8.60;99.90;;;;;;5064036;28;19979;-69
2023/03/14 04:09:32;;;;;;;;;;;8.60;99.90;;;;;;5064698;28;19925;-69
2023/03/14 04:12:00;;;;;;;;;;;8.60;99.90;;;;;;5064279;28;19992;-69
2023/03/14 04:14:26;;;;;;;;;;;8.60;99.90;;;;;;5064248;28;20414;-69
2023/03/14 04:16:53;;;;;;;;;;;8.50;99.90;;;;;;5063616;28;19928;-69
2023/03/14 04:19:21;;;;;;;;;;;8.50;99.90;;;;;;5064147;28;20264;-69
2023/03/14 04:21:47;;;;;;;;;;;8.60;99.90;;;;;;5064330;28;19921;-70
2023/03/14 04:24:14;;;;;;;;;;;8.50;99.90;;;;;;5064290;28;19987;-69
2023/03/14 04:26:40;;;;;;;;;;;8.60;99.90;;;;;;5062837;28;20124;-69
2023/03/14 04:29:08;;;;;;;;;;;8.60;99.90;;;;;;5064009;28;19956;-69
2023/03/14 04:31:35;;;;;;;;;;;8.50;99.90;;;;;;5063750;28;19927;-68
2023/03/14 04:34:02;;;;;;;;;;;8.60;99.90;;;;;;5064146;28;19983;-69
2023/03/14 04:36:28;;;;;;;;;;;8.60;99.90;;;;;;5063302;28;20000;-69
2023/03/14 04:38:55;;;;;;;;;;;8.60;99.90;;;;;;5064175;28;19991;-69
2023/03/14 04:41:21;;;;;;;;;;;8.60;99.90;;;;;;5063995;28;19987;-69
2023/03/14 04:43:48;;;;;;;;;;;8.60;99.90;;;;;;5063968;28;19927;-69
2023/03/14 04:46:16;;;;;;;;;;;8.60;99.90;;;;;;5062895;28;19963;-69
2023/03/14 04:48:43;;;;;;;;;;;8.60;99.90;;;;;;5063546;28;19921;-69
2023/03/14 04:51:09;;;;;;;;;;;8.60;99.90;;;;;;5063914;28;19991;-68
2023/03/14 04:53:37;;;;;;;;;;;8.60;99.90;;;;;;5063829;28;19988;-68
2023/03/14 04:56:04;;;;;;;;;;;8.60;99.90;;;;;;5062975;28;20001;-69
2023/03/14 04:58:30;;;;;;;;;;;8.60;99.90;;;;;;5063663;28;19983;-69
2023/03/14 05:01:02;;;;;;;;;;;8.60;99.90;;;;;;5063550;28;19953;-69
2023/03/14 05:03:30;;;;;;;;;;;8.60;99.90;;;;;;5063297;28;19987;-69
2023/03/14 05:05:57;;;;;;;;;;;8.60;99.90;;;;;;5063037;28;19927;-69
2023/03/14 05:08:23;;;;;;;;;;;8.50;99.90;;;;;;5063092;28;19921;-69
2023/03/14 05:10:52;;;;;;;;;;;8.50;99.90;;;;;;5063554;28;20000;-69
2023/03/14 05:13:19;;;;;;;;;;;8.50;99.90;;;;;;5063411;28;19928;-68
2023/03/14 05:15:45;;;;;;;;;;;8.50;99.90;;;;;;5063442;28;19983;-69
2023/03/14 05:18:12;;;;;;;;;;;8.50;99.90;;;;;;5063101;28;19987;-69
2023/03/14 05:20:40;;;;;;;;;;;8.50;99.90;;;;;;5063286;28;19959;-69
2023/03/14 05:23:07;;;;;;;;;;;8.50;99.90;;;;;;5062822;28;19927;-68
2023/03/14 05:25:33;;;;;;;;;;;8.40;99.90;;;;;;5063064;28;19983;-69
2023/03/14 05:28:00;;;;;;;;;;;8.50;99.90;;;;;;5062907;28;19952;-69
2023/03/14 05:30:27;;;;;;;;;;;8.50;99.90;;;;;;5063397;28;19925;-69
2023/03/14 05:32:54;;;;;;;;;;;8.40;99.90;;;;;;5063098;28;20212;-69
2023/03/14 05:35:21;;;;;;;;;;;8.50;99.90;;;;;;5063273;28;19956;-68
2023/03/14 05:37:49;;;;;;;;;;;8.40;99.90;;;;;;5062383;28;19984;-69
2023/03/14 05:40:16;;;;;;;;;;;8.40;99.90;;;;;;5065943;28;20212;-69
2023/03/14 05:42:42;;;;;;;;;;;8.40;99.90;;;;;;5067445;28;19984;-69
2023/03/14 05:45:09;;;;;;;;;;;8.40;99.90;;;;;;5067170;28;20386;-69
2023/03/14 05:47:36;;;;;;;;;;;8.40;99.90;;;;;;5066942;28;20099;-70
2023/03/14 05:50:05;;;;;;;;;;;8.40;99.90;;;;;;5066803;28;19927;-69
2023/03/14 05:52:32;;;;;;;;;;;8.40;99.90;;;;;;5066801;28;20279;-68
2023/03/14 05:55:00;;;;;;;;;;;8.40;99.90;;;;;;5066943;28;19989;-69
2023/03/14 05:57:27;;;;;;;;;;;8.40;99.90;;;;;;5066261;28;19921;-69
2023/03/14 05:59:53;;;;;;;;;;;8.40;99.90;;;;;;5065515;28;19980;-68
2023/03/14 06:02:20;;;;;;;;;;;8.40;99.90;;;;;;5066881;28;19921;-68
2023/03/14 06:04:46;;;;;;;;;;;8.40;99.90;;;;;;5066950;28;19975;-69
2023/03/14 06:07:13;;;;;;;;;;;8.40;99.90;;;;;;5065864;28;19956;-69
2023/03/14 06:09:40;;;;;;;;;;;8.40;99.90;;;;;;5065799;28;19920;-69
2023/03/14 06:12:08;;;;;;;;;;;8.40;99.90;;;;;;5066630;28;19967;-68
2023/03/14 06:14:35;;;;;;;;;;;8.40;99.90;;;;;;5046451;28;19984;-68
2023/03/14 06:17:01;;;;;;;;;;;8.40;99.90;;;;;;5045864;28;19964;-68
2023/03/14 06:19:28;;;;;;;;;;;8.40;99.90;;;;;;5046555;28;19952;-69
2023/03/14 06:21:54;;;;;;;;;;;8.40;99.90;;;;;;5055855;28;19921;-69
2023/03/14 06:24:21;;;;;;;;;;;8.40;99.90;;;;;;5056291;28;19980;-69
2023/03/14 06:26:48;;;;;;;;;;;8.40;99.90;;;;;;5053370;28;20228;-69
2023/03/14 06:29:16;;;;;;;;;;;8.40;99.90;;;;;;5044960;28;19984;-68
2023/03/14 06:31:42;;;;;;;;;;;8.50;99.90;;;;;;5054368;28;19929;-69
2023/03/14 06:34:09;;;;;;;;;;;8.40;99.90;;;;;;5058277;28;20444;-69
2023/03/14 06:36:35;;;;;;;;;;;8.50;99.90;;;;;;5042943;28;19991;-69
2023/03/14 06:39:02;;;;;;;;;;;8.50;99.90;;;;;;5052926;28;20189;-66
2023/03/14 06:41:29;;;;;;;;;;;8.60;99.90;;;;;;5062961;28;19996;-65
2023/03/14 06:43:55;;;;;;;;;;;8.60;99.90;;;;;;5055288;28;19929;-69
2023/03/14 06:46:23;;;;;;;;;;;8.60;99.90;;;;;;5042898;28;19992;-69
2023/03/14 06:48:50;;;;;;;;;;;8.60;99.90;;;;;;5046624;28;19921;-69
2023/03/14 06:51:17;;;;;;;;;;;8.60;99.90;;;;;;5043181;28;19929;-69
2023/03/14 06:53:43;;;;;;;;;;;8.60;99.90;;;;;;5050283;28;19935;-69
2023/03/14 06:56:10;;;;;;;;;;;8.60;99.90;;;;;;5048127;28;19996;-68
2023/03/14 06:58:36;;;;;;;;;;;8.70;99.90;;;;;;5057436;28;20015;-69
2023/03/14 07:01:03;;;;;;;;;;;8.70;99.90;;;;;;5050206;28;19927;-69
2023/03/14 07:03:31;;;;;;;;;;;8.70;99.90;;;;;;5063577;28;19959;-70
2023/03/14 07:05:59;;;;;;;;;;;8.80;99.90;;;;;;5053233;28;19929;-70
2023/03/14 07:08:26;;;;;;;;;;;8.70;99.90;;;;;;5043297;28;20220;-69
2023/03/14 07:10:52;;;;;;;;;;;8.80;99.90;;;;;;5043404;28;19987;-70
2023/03/14 07:13:19;;;;;;;;;;;8.80;99.90;;;;;;5058055;28;19980;-69
2023/03/14 07:15:46;;;;;;;;;;;8.80;99.90;;;;;;5051791;28;19987;-69
2023/03/14 07:18:12;;;;;;;;;;;8.80;99.90;;;;;;5053276;28;19921;-69
2023/03/14 07:20:40;;;;;;;;;;;8.90;99.90;;;;;;5054551;28;19995;-69
2023/03/14 07:23:07;;;;;;;;;;;8.90;99.90;;;;;;5065177;28;19995;-69
2023/03/14 07:25:33;;;;;;;;;;;9.00;99.90;;;;;;5053609;28;19984;-70
2023/03/14 07:28:00;;;;;;;;;;;9.00;99.90;;;;;;5044747;28;20176;-69
2023/03/14 07:30:27;;;;;;;;;;;9.00;99.90;;;;;;5058314;28;19980;-69
2023/03/14 07:32:53;;;;;;;;;;;9.00;99.90;;;;;;5044951;28;20090;-69
2023/03/14 07:35:20;;;;;;;;;;;9.10;99.90;;;;;;5048958;28;19928;-70
2023/03/14 07:37:48;;;;;;;;;;;9.10;99.90;;;;;;5055765;28;19929;-68
2023/03/14 07:40:15;;;;;;;;;;;9.20;99.90;;;;;;5044838;28;20216;-69
2023/03/14 07:42:41;;;;;;;;;;;9.20;99.90;;;;;;5044907;28;20094;-69
2023/03/14 07:45:08;;;;;;;;;;;9.20;99.90;;;;;;5044312;28;19921;-69
2023/03/14 07:47:35;;;;;;;;;;;9.30;99.90;;;;;;5052525;28;19987;-68
2023/03/14 07:50:01;;;;;;;;;;;9.30;99.90;;;;;;5064993;28;19987;-69
2023/03/14 07:52:28;;;;;;;;;;;9.40;99.90;;;;;;5056934;28;19921;-68
2023/03/14 07:54:56;;;;;;;;;;;9.40;99.90;;;;;;5064489;28;19929;-69
2023/03/14 07:57:23;;;;;;;;;;;9.40;99.90;;;;;;5044269;28;19943;-70
2023/03/14 07:59:50;;;;;;;;;;;9.50;99.90;;;;;;5053643;28;20216;-69
2023/03/14 08:02:17;;;;;;;;;;;9.60;99.90;;;;;;5043844;28;19988;-69
2023/03/14 08:04:44;;;;;;;;;;;9.70;99.90;;;;;;5055082;28;19951;-69
2023/03/14 08:07:11;;;;;;;;;;;9.70;99.90;;;;;;5055622;28;19985;-70
2023/03/14 08:09:37;;;;;;;;;;;9.70;99.90;;;;;;5055558;28;19983;-70
2023/03/14 08:12:06;;;;;;;;;;;9.80;99.90;;;;;;5048028;28;19984;-69
2023/03/14 08:14:32;;;;;;;;;;;9.80;99.90;;;;;;5052185;28;19989;-69
2023/03/14 08:16:59;;;;;;;;;;;9.80;99.90;;;;;;5062742;28;20120;-70
2023/03/14 08:19:25;;;;;;;;;;;9.80;99.90;;;;;;5059623;28;19960;-70
2023/03/14 08:21:52;;;;;;;;;;;9.80;99.90;;;;;;5044818;28;19963;-69
2023/03/14 08:24:19;;;;;;;;;;;9.90;99.90;;;;;;5045908;28;19952;-69
2023/03/14 08:26:45;;;;;;;;;;;9.90;99.90;;;;;;5050839;28;20159;-67
2023/03/14 08:29:13;;;;;;;;;;;10.00;99.90;;;;;;5052196;28;19980;-69
2023/03/14 08:31:40;;;;;;;;;;;10.00;99.90;;;;;;5062303;28;19927;-69
2023/03/14 08:34:07;;;;;;;;;;;10.00;99.90;;;;;;5064219;28;19983;-69
2023/03/14 08:36:33;;;;;;;;;;;10.00;99.90;;;;;;5063502;28;19959;-69
2023/03/14 08:39:00;;;;;;;;;;;10.00;99.90;;;;;;5053822;28;19929;-68
2023/03/14 08:41:27;;;;;;;;;;;10.00;99.90;;;;;;5055423;28;19921;-68
2023/03/14 08:43:53;;;;;;;;;;;10.10;99.90;;;;;;5063666;28;20115;-69
2023/03/14 08:46:21;;;;;;;;;;;10.20;99.90;;;;;;5059172;28;20000;-69
2023/03/14 08:48:48;;;;;;;;;;;10.30;99.90;;;;;;5052748;28;19927;-69
2023/03/14 08:51:15;;;;;;;;;;;10.30;99.90;;;;;;5063831;28;19979;-69
2023/03/14 08:53:41;;;;;;;;;;;10.40;99.90;;;;;;5061886;28;20280;-69
2023/03/14 08:56:09;;;;;;;;;;;10.40;99.90;;;;;;5062570;28;19921;-68
2023/03/14 08:58:37;;;;;;;;;;;10.40;99.90;;;;;;5063602;28;19975;-68
2023/03/14 09:01:04;;;;;;;;;;;10.50;99.90;;;;;;5063733;28;19924;-70
2023/03/14 09:03:32;;;;;;;;;;;10.50;99.90;;;;;;5063813;28;20234;-69
2023/03/14 09:06:03;;;;;;;;;;;10.60;99.90;;;;;;5062785;28;19928;-69
2023/03/14 09:08:29;;;;;;;;;;;10.60;99.90;;;;;;5063522;28;19939;-69
2023/03/14 09:10:56;;;;;;;;;;;10.70;99.90;;;;;;5063347;28;19967;-69
2023/03/14 09:13:22;;;;;;;;;;;10.80;99.90;;;;;;5062443;28;20200;-69
2023/03/14 09:15:51;;;;;;;;;;;10.80;99.90;;;;;;5057727;28;19952;-69
2023/03/14 09:18:17;;;;;;;;;;;10.80;99.90;;;;;;5041392;28;19928;-68
2023/03/14 09:20:45;;;;;;;;;;;10.90;99.90;;;;;;5040889;28;20269;-69
2023/03/14 09:23:12;;;;;;;;;;;10.90;99.90;;;;;;5041774;28;19929;-69
2023/03/14 09:25:38;;;;;;;;;;;10.90;99.90;;;;;;5041371;28;19992;-70
2023/03/14 09:28:05;;;;;;;;;;;10.90;99.90;;;;;;5052446;28;19929;-69
2023/03/14 09:30:32;;;;;;;;;;;11.10;99.90;;;;;;5061664;28;19992;-68
2023/03/14 09:32:58;;;;;;;;;;;11.10;99.90;;;;;;5060451;28;19992;-69
2023/03/14 09:35:25;;;;;;;;;;;11.20;99.90;;;;;;5061145;28;20360;-69
2023/03/14 09:37:53;;;;;;;;;;;11.20;99.90;;;;;;5060337;28;19971;-69
2023/03/14 09:40:20;;;;;;;;;;;11.20;99.90;;;;;;5061150;28;19950;-68
2023/03/14 09:42:48;;;;;;;;;;;11.20;99.90;;;;;;5061953;28;19929;-69
2023/03/14 09:45:19;;;;;;;;;;;11.10;99.90;;;;;;5061276;28;19988;-70
2023/03/14 09:47:46;;;;;;;;;;;11.10;99.90;;;;;;5060722;28;19928;-69
2023/03/14 09:50:15;;;;;;;;;;;11.10;99.90;;;;;;5061333;28;20124;-68
2023/03/14 09:52:43;;;;;;;;;;;11.00;99.90;;;;;;5061307;28;19936;-69
2023/03/14 09:55:14;;;;;;;;;;;11.00;99.90;;;;;;5058918;28;19935;-69
2023/03/14 09:57:42;;;;;;;;;;;11.00;99.90;;;;;;5060298;28;19996;-69
2023/03/14 10:00:14;;;;;;;;;;;11.00;99.90;;;;;;5060815;28;20116;-69
2023/03/14 10:02:42;;;;;;;;;;;11.00;99.90;;;;;;5060368;28;19929;-68
2023/03/14 10:05:15;;;;;;;;;;;11.10;99.90;;;;;;5060538;28;19928;-68
2023/03/14 10:07:41;;;;;;;;;;;11.10;99.90;;;;;;5060633;28;19935;-69
2023/03/14 10:10:11;;;;;;;;;;;11.10;99.90;;;;;;5062061;28;20291;-69
2023/03/14 10:12:39;;;;;;;;;;;11.10;99.90;;;;;;5062037;28;19927;-69
2023/03/14 10:15:07;;;;;;;;;;;11.10;99.90;;;;;;5062527;28;19924;-69
2023/03/14 10:17:39;;;;;;;;;;;11.20;99.90;;;;;;5061853;28;19956;-69
2023/03/14 10:20:06;;;;;;;;;;;11.20;99.90;;;;;;5062827;28;19983;-69
2023/03/14 10:22:33;;;;;;;;;;;11.30;99.90;;;;;;5062444;28;19921;-69
2023/03/14 10:25:02;;;;;;;;;;;11.30;99.90;;;;;;5062688;28;19928;-69
2023/03/14 10:27:30;;;;;;;;;;;11.40;99.90;;;;;;5065934;28;19921;-69
2023/03/14 10:29:59;;;;;;;;;;;11.60;99.90;;;;;;5066192;28;19921;-69
2023/03/14 10:32:29;;;;;;;;;;;11.70;99.90;;;;;;5065707;28;19921;-69
2023/03/14 10:35:14;;;;;;;;;;;11.70;99.90;;;;;;5065960;28;20179;-69
2023/03/14 10:37:49;;;;;;;;;;;11.70;99.90;;;;;;5065041;28;20143;-69
2023/03/14 10:40:15;;;;;;;;;;;11.70;99.90;;;;;;5066038;28;19928;-69
2023/03/14 10:42:44;;;;;;;;;;;11.60;99.90;;;;;;5065845;28;19983;-69
2023/03/14 10:45:26;;;;;;;;;;;11.60;99.90;;;;;;5065347;28;20279;-69
2023/03/14 10:47:53;;;;;;;;;;;11.50;99.90;;;;;;5065049;28;20208;-70
2023/03/14 10:50:23;;;;;;;;;;;11.50;99.90;;;;;;5065525;28;20226;-68
2023/03/14 10:52:50;;;;;;;;;;;11.40;99.90;;;;;;5065565;28;19921;-69
2023/03/14 10:55:17;;;;;;;;;;;11.30;99.90;;;;;;5061498;28;20165;-69
2023/03/14 10:57:44;;;;;;;;;;;11.20;99.90;;;;;;5051346;28;19921;-68
2023/03/14 11:00:16;;;;;;;;;;;11.10;99.90;;;;;;5045356;28;20200;-68
2023/03/14 11:03:03;;;;;;;;;;;11.10;99.90;;;;;;5049440;28;19928;-68
2023/03/14 11:05:33;;;;;;;;;;;11.00;99.90;;;;;;5059616;28;20414;-73
2023/03/14 11:08:02;;;;;;;;;;;11.00;99.90;;;;;;5054129;28;19921;-67
2023/03/14 11:10:32;;;;;;;;;;;11.20;99.90;;;;;;5045479;28;20232;-69
2023/03/14 11:13:06;;;;;;;;;;;11.40;99.90;;;;;;5056140;28;19924;-69
2023/03/14 11:15:35;;;;;;;;;;;11.60;99.90;;;;;;5045291;28;19921;-68
2023/03/14 11:18:18;;;;;;;;;;;11.90;99.90;;;;;;5044406;28;19929;-68
2023/03/14 11:20:47;;;;;;;;;;;12.20;99.90;;;;;;5061223;28;19992;-68
2023/03/14 11:23:15;;;;;;;;;;;12.40;99.90;;;;;;5055954;28;20181;-68
2023/03/14 11:25:46;;;;;;;;;;;12.50;99.90;;;;;;5052635;28;19991;-67
2023/03/14 11:28:18;;;;;;;;;;;12.70;99.90;;;;;;5062668;28;19960;-71
2023/03/14 11:30:50;;;;;;;;;;;13.00;99.90;;;;;;5061886;28;20191;-68
2023/03/14 11:33:19;;;;;;;;;;;13.10;99.90;;;;;;5052102;28;19955;-67
2023/03/14 11:35:54;;;;;;;;;;;13.20;99.90;;;;;;5056133;28;19935;-68
2023/03/14 11:38:25;;;;;;;;;;;13.10;99.90;;;;;;5049682;28;19988;-68
2023/03/14 11:40:52;;;;;;;;;;;12.90;99.90;;;;;;5042699;28;19929;-69
2023/03/14 11:43:21;;;;;;;;;;;12.80;99.90;;;;;;5061949;28;20251;-68
2023/03/14 11:45:49;;;;;;;;;;;12.80;99.90;;;;;;5062232;28;20235;-69
2023/03/14 11:48:25;;;;;;;;;;;12.70;99.90;;;;;;5044141;28;19935;-67
2023/03/14 11:50:53;;;;;;;;;;;12.60;99.90;;;;;;5053420;28;19988;-68
2023/03/14 11:53:22;;;;;;;;;;;12.50;99.90;;;;;;5051407;28;19999;-68
2023/03/14 11:55:49;;;;;;;;;;;12.50;99.90;;;;;;5049585;28;19921;-68
2023/03/14 11:58:19;;;;;;;;;;;12.70;99.90;;;;;;5060214;28;19968;-69
2023/03/14 12:00:47;;;;;;;;;;;12.90;99.90;;;;;;5060243;28;19928;-69
2023/03/14 12:03:18;;;;;;;;;;;12.90;99.90;;;;;;5060693;28;19929;-69
2023/03/14 12:05:51;;;;;;;;;;;13.00;99.90;;;;;;5054204;28;19920;-68
2023/03/14 12:08:38;;;;;;;;;;;13.00;99.90;;;;;;5046634;28;19948;-68
2023/03/14 12:11:10;;;;;;;;;;;13.00;99.90;;;;;;5054066;28;19929;-69
2023/03/14 12:13:38;;;;;;;;;;;12.90;99.90;;;;;;5051196;28;20234;-68
2023/03/14 12:16:06;;;;;;;;;;;12.90;99.90;;;;;;5052743;28;19991;-69
2023/03/14 12:18:34;;;;;;;;;;;12.80;99.90;;;;;;5048637;28;19929;-68
2023/03/14 12:21:03;;;;;;;;;;;12.80;99.90;;;;;;5041645;28;19958;-68
2023/03/14 12:23:36;;;;;;;;;;;12.60;99.90;;;;;;5047111;28;19928;-68
2023/03/14 12:26:15;;;;;;;;;;;12.60;99.90;;;;;;5056403;28;19939;-68
2023/03/14 12:28:44;;;;;;;;;;;12.40;99.90;;;;;;5059651;28;20283;-68
2023/03/14 12:31:29;;;;;;;;;;;12.30;99.90;;;;;;5060740;28;19921;-69
2023/03/14 12:34:03;;;;;;;;;;;12.00;99.90;;;;;;5062175;28;20283;-67
2023/03/14 12:36:48;;;;;;;;;;;11.50;99.90;;;;;;5057657;28;19921;-67
2023/03/14 12:39:21;;;;;;;;;;;11.10;99.90;;;;;;5042080;28;19940;-67
2023/03/14 12:41:52;;;;;;;;;;;10.80;99.90;;;;;;5051364;28;19939;-68
2023/03/14 12:44:40;;;;;;;;;;;10.60;99.90;;;;;;5062114;28;20418;-69
2023/03/14 12:47:21;;;;;;;;;;;10.60;99.90;;;;;;5045392;28;19928;-68
2023/03/14 12:49:49;;;;;;;;;;;10.50;99.90;;;;;;5061235;28;19997;-69
2023/03/14 12:52:17;;;;;;;;;;;10.50;99.90;;;;;;5057583;28;19935;-69
2023/03/14 12:54:47;;;;;;;;;;;10.40;99.90;;;;;;5042671;28;19929;-68
2023/03/14 12:57:25;;;;;;;;;;;10.30;99.90;;;;;;5039760;28;20004;-67
2023/03/14 12:59:52;;;;;;;;;;;10.30;99.90;;;;;;5053078;28;20147;-67
2023/03/14 13:02:26;;;;;;;;;;;10.30;99.90;;;;;;5052646;28;19935;-68
2023/03/14 13:04:54;;;;;;;;;;;10.30;99.90;;;;;;5060150;28;19929;-68
2023/03/14 13:07:57;;;;;;;;;;;10.30;99.90;;;;;;5059248;28;20425;-68
2023/03/14 13:10:25;;;;;;;;;;;10.30;99.90;;;;;;5057417;28;19921;-68
2023/03/14 13:12:54;;;;;;;;;;;10.10;99.90;;;;;;5058701;28;20157;-67
2023/03/14 13:15:24;;;;;;;;;;;10.00;99.90;;;;;;5061745;28;19928;-67
2023/03/14 13:17:52;;;;;;;;;;;9.90;99.90;;;;;;5054539;28;20259;-69
2023/03/14 13:20:22;;;;;;;;;;;9.80;99.90;;;;;;5053643;28;19951;-69
2023/03/14 13:22:50;;;;;;;;;;;9.70;99.90;;;;;;5056541;28;19920;-68
2023/03/14 13:25:18;;;;;;;;;;;9.70;99.90;;;;;;5059339;28;20535;-67
2023/03/14 13:27:46;;;;;;;;;;;9.60;99.90;;;;;;5058766;28;19936;-68
2023/03/14 13:30:17;;;;;;;;;;;9.60;99.90;;;;;;5040279;28;20236;-68
2023/03/14 13:32:44;;;;;;;;;;;9.50;99.90;;;;;;5049407;28;20120;-68
2023/03/14 13:35:19;;;;;;;;;;;9.50;99.90;;;;;;5042581;28;19959;-68
2023/03/14 13:37:45;;;;;;;;;;;9.50;99.90;;;;;;5042498;28;19921;-68
2023/03/14 13:40:24;;;;;;;;;;;9.50;99.90;;;;;;5043227;28;20260;-68
2023/03/14 13:43:01;;;;;;;;;;;9.50;99.90;;;;;;5049185;28;19984;-68
2023/03/14 13:45:28;;;;;;;;;;;9.50;99.90;;;;;;5043065;28;19921;-68
2023/03/14 13:47:55;;;;;;;;;;;9.40;99.90;;;;;;5054584;28;19921;-68
2023/03/14 13:50:21;;;;;;;;;;;9.30;99.90;;;;;;5062496;28;19921;-68
2023/03/14 13:52:55;;;;;;;;;;;9.30;99.90;;;;;;5062771;28;19959;-68
2023/03/14 13:55:22;;;;;;;;;;;9.10;99.90;;;;;;5062683;28;20180;-68
2023/03/14 13:57:50;;;;;;;;;;;8.90;99.90;;;;;;5061792;28;19935;-67
2023/03/14 14:00:20;;;;;;;;;;;8.70;99.90;;;;;;5063879;28;19920;-68
2023/03/14 14:02:48;;;;;;;;;;;8.50;99.90;;;;;;5067089;28;19991;-68
2023/03/14 14:05:15;;;;;;;;;;;8.40;99.90;;;;;;5062523;28;20124;-68
2023/03/14 14:07:44;;;;;;;;;;;8.40;99.90;;;;;;5046204;28;19957;-67
2023/03/14 14:10:11;;;;;;;;;;;8.40;99.90;;;;;;5046801;28;19921;-68
2023/03/14 14:12:40;;;;;;;;;;;8.40;99.90;;;;;;5046656;28;19921;-68
2023/03/14 14:15:07;;;;;;;;;;;8.30;99.90;;;;;;5046460;28;20204;-68
2023/03/14 14:17:37;;;;;;;;;;;8.20;99.90;;;;;;5046768;28;19973;-69
2023/03/14 14:20:06;;;;;;;;;;;8.10;99.90;;;;;;5058338;28;19927;-68
2023/03/14 14:22:33;;;;;;;;;;;8.00;99.90;;;;;;5049757;28;19988;-68
2023/03/14 14:25:01;;;;;;;;;;;7.90;99.90;;;;;;5047716;28;19928;-68
2023/03/14 14:27:31;;;;;;;;;;;7.80;99.90;;;;;;5052840;28;19978;-68
2023/03/14 14:29:58;;;;;;;;;;;7.70;99.90;;;;;;5046507;28;19963;-69
2023/03/14 14:32:25;;;;;;;;;;;7.60;99.90;;;;;;5061050;28;19920;-70